Thunder radar more information blitzortung!


avis per Pluja more information rain snow radar


Visita la nostra xarxa de llocs de meteo:

Template documentation
and downloads

And another site



Rain From: 18-10-2018 10:00 Until: 16:59 warning for: Rain Level: Yellow info button

Pagina Historial Weather Underground text

Diari Resum Novembre 7, 2017 Unitats:  Mètric    Imperial   Tant
« Previous Dia
SegĂźent Dia »
Diari Setmana Mensual Anual Personalitzada
  Maxima: Minima: Media:
Temperatura: -17.8 °C -16.1 °C -12.8 °C
Punt de rosada: -17.8 °C -23.7 °C -20.7 °C
Humitat: Humidity % 29 % 37 %
Wind Speed: 0 km/h 0 km/h 7.7 km/h
RĂ fegues de vent: 0 km/h - -
Vent:- - SSW
Pression baro: 0 hPa 34395 hPa -
Precipitacions: 0 mm    
Historical Graphs
 
 
Dades de taula per Novembre 7, 2017
Temps Temperatura Punt de rosada Pression baro Vent Wind Speed RĂ fegues de vent Humitat Rainfall Rate (Hourly)
-17.8 °C -17.8 °C 0 hPa Calm     Humidity % 0 mm
00:03 -13.9 °C -23.2 °C 34395 hPa SSW 3.1 km/h   29 % 0 mm
00:05 -15.9 °C -23.7 °C 34462.7 hPa WSW 2.6 km/h 5.1 km/h 35 % 0 mm
00:08 -13.9 °C -23.2 °C 34428.8 hPa SSW 11.9 km/h 11.9 km/h 29 % 0 mm
00:15 -15.8 °C -23.4 °C 34462.7 hPa Calm   2.6 km/h 36 % 0 mm
00:25 -15.9 °C -23.5 °C 34428.8 hPa Calm   2.6 km/h 36 % 0 mm
00:45 -16 °C -23.4 °C 34462.7 hPa WSW 2.6 km/h 7.7 km/h 37 % 0 mm
00:55 -15.9 °C -23.4 °C 34462.7 hPa Calm   5.1 km/h 37 % 0 mm
01:05 -16 °C -23.2 °C 34462.7 hPa WNW 2.6 km/h 5.1 km/h 38 % 0 mm
01:15 -15.9 °C -23 °C 34462.7 hPa Calm   2.6 km/h 39 % 0 mm
01:25 -16 °C -23 °C 34462.7 hPa Calm   2.6 km/h 39 % 0 mm
01:45 -16.1 °C -22.8 °C 34462.7 hPa West 2.6 km/h 5.1 km/h 41 % 0 mm
01:55 -15.9 °C -22.6 °C 34462.7 hPa Calm   5.1 km/h 41 % 0 mm
02:05 -15.5 °C -22.1 °C 34462.7 hPa WNW 2.6 km/h 5.1 km/h 42 % 0 mm
02:15 -15.2 °C -21.8 °C 34496.6 hPa NNE 2.6 km/h 2.6 km/h 42 % 0 mm
02:25 -15.1 °C -21.5 °C 34496.6 hPa Calm   7.7 km/h 43 % 0 mm
02:35 -14.9 °C -21.3 °C 34496.6 hPa North 2.6 km/h 5.1 km/h 43 % 0 mm
02:45 -14.5 °C -20.9 °C 34496.6 hPa North 2.6 km/h 7.7 km/h 43 % 0 mm
02:55 -14.4 °C -20.9 °C 34496.6 hPa North 2.6 km/h 7.7 km/h 43 % 0 mm
03:05 -14.3 °C -20.8 °C 34496.6 hPa North 5.1 km/h 7.7 km/h 43 % 0 mm
03:15 -14.4 °C -20.9 °C 34496.6 hPa NE 7.7 km/h 12.9 km/h 43 % 0 mm
03:25 -14.1 °C -20.4 °C 34496.6 hPa NE 2.6 km/h 5.1 km/h 44 % 0 mm
03:35 -14 °C -20.3 °C 34496.6 hPa NE 5.1 km/h 7.7 km/h 44 % 0 mm
03:45 -13.9 °C -20.2 °C 34496.6 hPa NNE 5.1 km/h 12.9 km/h 44 % 0 mm
03:55 -13.7 °C -20.1 °C 34496.6 hPa Calm   10.3 km/h 44 % 0 mm
04:05 -13.4 °C -19.8 °C 34496.6 hPa NNE 5.1 km/h 7.7 km/h 44 % 0 mm
04:15 -13.1 °C -19.6 °C 34496.6 hPa NE 2.6 km/h 7.7 km/h 44 % 0 mm
10:17 -13.1 °C -19.7 °C 34496.6 hPa North 6 km/h 6 km/h 43 % 0 mm
10:18 -13.1 °C -19.7 °C 34496.6 hPa NNE 6 km/h 6 km/h 43 % 0 mm
10:19 -13 °C -19.6 °C 34496.6 hPa NW 9 km/h 9 km/h 43 % 0 mm
10:24 -12.8 °C -19.4 °C 34462.7 hPa WSW 15 km/h 15 km/h 43 % 0 mm
10:29 -12.7 °C -19.5 °C 34462.7 hPa West 20.9 km/h 20.9 km/h 42 % 0 mm
10:34 -12.6 °C -19.4 °C 34462.7 hPa SW 20.9 km/h 20.9 km/h 42 % 0 mm
10:39 -12.4 °C -19.2 °C 34496.6 hPa West 15 km/h 15 km/h 42 % 0 mm
10:44 -12.2 °C -19.3 °C 34496.6 hPa WNW 9 km/h 9 km/h 41 % 0 mm
10:49 -12.2 °C -19.2 °C 34496.6 hPa WSW 15.3 km/h 15.3 km/h 41 % 0 mm
10:54 -12.1 °C -19.3 °C 34496.6 hPa SSW 11.9 km/h 11.9 km/h 40 % 0 mm
10:59 -12 °C -19.3 °C 34496.6 hPa West 17.9 km/h 17.9 km/h 40 % 0 mm
11:04 -12.1 °C -19.7 °C 34496.6 hPa West 23.8 km/h 23.8 km/h 38 % 0 mm
11:09 -11.9 °C -19.6 °C 34496.6 hPa WNW 11.9 km/h 11.9 km/h 38 % 0 mm
11:14 -11.9 °C -19.7 °C 34496.6 hPa WSW 17.9 km/h 17.9 km/h 37 % 0 mm
11:19 -11.8 °C -19.6 °C 34496.6 hPa WNW 15 km/h 15 km/h 37 % 0 mm
11:24 -11.7 °C -19.8 °C 34496.6 hPa SW 17.9 km/h 17.9 km/h 36 % 0 mm
11:29 -11.6 °C -19.7 °C 34496.6 hPa WSW 20.9 km/h 20.9 km/h 36 % 0 mm
11:34 -11.6 °C -19.9 °C 34496.6 hPa West 17.9 km/h 17.9 km/h 35 % 0 mm
11:39 -11.6 °C -19.8 °C 34496.6 hPa West 15 km/h 15 km/h 35 % 0 mm
11:44 -11.4 °C -19.7 °C 34496.6 hPa WSW 11.9 km/h 11.9 km/h 35 % 0 mm
11:49 -11.3 °C -19.6 °C 34496.6 hPa WSW 15 km/h 15 km/h 35 % 0 mm
11:54 -11.2 °C -19.8 °C 34496.6 hPa WNW 9 km/h 9 km/h 34 % 0 mm
11:59 -11.2 °C -19.8 °C 34496.6 hPa NW 17.9 km/h 17.9 km/h 34 % 0 mm
12:04 -11 °C -19.6 °C 34496.6 hPa ESE 15 km/h 15 km/h 34 % 0 mm
12:09 -10.9 °C -19.5 °C 34496.6 hPa West 17.9 km/h 17.9 km/h 34 % 0 mm
12:14 -10.8 °C -19.4 °C 34496.6 hPa WSW 15 km/h 15 km/h 34 % 0 mm
12:19 -10.8 °C -19.6 °C 34496.6 hPa WSW 17.9 km/h 17.9 km/h 33 % 0 mm
12:29 -10.5 °C -19.3 °C 34496.6 hPa West 6.3 km/h 6.3 km/h 33 % 0 mm
12:34 -10.4 °C -19.3 °C 34496.6 hPa West 11.9 km/h 11.9 km/h 33 % 0 mm
12:39 -10.4 °C -19.3 °C 34462.7 hPa WNW 20.9 km/h 20.9 km/h 33 % 0 mm
12:44 -10.3 °C -19.2 °C 34462.7 hPa SSW 20.9 km/h 20.9 km/h 33 % 0 mm
12:49 -10.3 °C -19.2 °C 34462.7 hPa WNW 15 km/h 15 km/h 33 % 0 mm
12:54 -10.3 °C -19.4 °C 34462.7 hPa West 20.9 km/h 20.9 km/h 32 % 0 mm
13:04 -10.1 °C -19.2 °C 34462.7 hPa West 17.9 km/h 17.9 km/h 32 % 0 mm
13:09 -10.2 °C -19.3 °C 34462.7 hPa WSW 12.7 km/h 12.7 km/h 32 % 0 mm
13:14 -10 °C -19.1 °C 34462.7 hPa South 16.1 km/h 16.1 km/h 32 % 0 mm
13:19 -10.2 °C -19.6 °C 34462.7 hPa West 23.8 km/h 23.8 km/h 31 % 0 mm
13:24 -10.2 °C -19.6 °C 34462.7 hPa WSW 15 km/h 15 km/h 31 % 0 mm
13:29 -10.1 °C -19.7 °C 34462.7 hPa West 20.9 km/h 20.9 km/h 30 % 0 mm
13:34 -10.2 °C -19.8 °C 34462.7 hPa North 17.9 km/h 17.9 km/h 30 % 0 mm
13:39 -10.2 °C -19.8 °C 34462.7 hPa South 19.2 km/h 19.2 km/h 30 % 0 mm
13:44 -10.2 °C -19.8 °C 34462.7 hPa WSW 18.3 km/h 18.3 km/h 30 % 0 mm
13:49 -10.2 °C -19.8 °C 34462.7 hPa West 23.8 km/h 23.8 km/h 30 % 0 mm
13:54 -10.3 °C -20.1 °C 34462.7 hPa West 15 km/h 15 km/h 29 % 0 mm
13:59 -10.3 °C -20.1 °C 34462.7 hPa West 15 km/h 15 km/h 29 % 0 mm
14:04 -10.2 °C -20.1 °C 34462.7 hPa SW 23.8 km/h 23.8 km/h 29 % 0 mm
14:09 -10.2 °C -19.8 °C 34428.8 hPa SW 20.9 km/h 20.9 km/h 30 % 0 mm
14:14 -10.1 °C -19.7 °C 34428.8 hPa West 11.9 km/h 11.9 km/h 30 % 0 mm
14:19 -10.1 °C -19.7 °C 34428.8 hPa SW 17.9 km/h 17.9 km/h 30 % 0 mm
14:24 -10 °C -19.6 °C 34462.7 hPa West 20.9 km/h 20.9 km/h 30 % 0 mm
14:34 -10 °C -19.6 °C 34462.7 hPa WSW 20.9 km/h 20.9 km/h 30 % 0 mm
14:39 -9.8 °C -19.5 °C 34462.7 hPa West 15 km/h 15 km/h 30 % 0 mm
14:44 -9.9 °C -19.6 °C 34462.7 hPa WSW 20.9 km/h 20.9 km/h 30 % 0 mm
14:49 -9.9 °C -19.6 °C 34462.7 hPa West 17.9 km/h 17.9 km/h 30 % 0 mm
14:54 -9.8 °C -19.5 °C 34462.7 hPa WSW 17.9 km/h 17.9 km/h 30 % 0 mm
14:59 -9.8 °C -19.4 °C 34462.7 hPa NW 9.3 km/h 9.3 km/h 30 % 0 mm
15:04 -9.7 °C -19.4 °C 34462.7 hPa West 15 km/h 15 km/h 30 % 0 mm
15:09 -9.7 °C -19.4 °C 34462.7 hPa SW 11.9 km/h 11.9 km/h 30 % 0 mm
15:14 -9.7 °C -19.3 °C 34462.7 hPa ENE 11.9 km/h 11.9 km/h 30 % 0 mm
15:19 -9.8 °C -19.4 °C 34462.7 hPa NW 9 km/h 9 km/h 30 % 0 mm
15:24 -9.7 °C -19.4 °C 34462.7 hPa South 9 km/h 9 km/h 30 % 0 mm
15:29 -9.7 °C -19.4 °C 34462.7 hPa WSW 23.8 km/h 23.8 km/h 30 % 0 mm
15:34 -9.8 °C -19.7 °C 34462.7 hPa West 15 km/h 15 km/h 29 % 0 mm
15:36 -9.7 °C -19.4 °C 34428.8 hPa WSW 15.3 km/h 15.3 km/h 30 % 0 mm
15:41 -9.7 °C -19.4 °C 34428.8 hPa WSW 14.5 km/h 14.5 km/h 30 % 0 mm
15:46 -9.8 °C -19.7 °C 34428.8 hPa SW 20.9 km/h 20.9 km/h 29 % 0 mm
15:51 -9.8 °C -19.7 °C 34462.7 hPa West 14.5 km/h 14.5 km/h 29 % 0 mm
15:56 -9.9 °C -19.8 °C 34462.7 hPa WSW 26.9 km/h 26.9 km/h 29 % 0 mm
16:01 -9.9 °C -19.8 °C 34462.7 hPa WSW 15 km/h 15 km/h 29 % 0 mm
16:06 -9.9 °C -19.8 °C 34428.8 hPa WNW 15 km/h 15 km/h 29 % 0 mm
16:11 -9.8 °C -19.5 °C 34428.8 hPa WSW 9.8 km/h 9.8 km/h 30 % 0 mm
16:16 -9.9 °C -19.6 °C 34428.8 hPa South 11.1 km/h 11.1 km/h 30 % 0 mm
16:21 -9.9 °C -19.8 °C 34428.8 hPa WSW 15 km/h 15 km/h 29 % 0 mm
16:26 -9.9 °C -19.6 °C 34428.8 hPa West 11.9 km/h 11.9 km/h 30 % 0 mm
16:32 -9.9 °C -19.6 °C 34428.8 hPa SW 15 km/h 15 km/h 30 % 0 mm
16:37 -9.9 °C -19.6 °C 34428.8 hPa WSW 15 km/h 15 km/h 30 % 0 mm
16:42 -9.9 °C -19.6 °C 34428.8 hPa WNW 9 km/h 9 km/h 30 % 0 mm
16:47 -9.9 °C -19.6 °C 34428.8 hPa WSW 6 km/h 6 km/h 30 % 0 mm
16:52 -10 °C -19.6 °C 34428.8 hPa WNW 7.6 km/h 7.6 km/h 30 % 0 mm
16:57 -10.1 °C -19.7 °C 34428.8 hPa NW 9 km/h 9 km/h 30 % 0 mm
17:02 -10.2 °C -19.8 °C 34428.8 hPa WNW 6 km/h 6 km/h 30 % 0 mm
17:07 -10.2 °C -19.8 °C 34428.8 hPa West 9.3 km/h 9.3 km/h 30 % 0 mm
17:12 -10.4 °C -19.9 °C 34428.8 hPa West 9 km/h 9 km/h 30 % 0 mm
17:17 -10.6 °C -20.1 °C 34428.8 hPa WSW 6 km/h 6 km/h 30 % 0 mm
17:22 -10.8 °C -20.3 °C 34428.8 hPa WSW 6 km/h 6 km/h 30 % 0 mm
17:27 -10.9 °C -20.4 °C 34428.8 hPa West 4.2 km/h 4.2 km/h 30 % 0 mm
17:32 -11 °C -20.5 °C 34428.8 hPa West 6 km/h 6 km/h 30 % 0 mm
17:37 -11.1 °C -20.6 °C 34462.7 hPa WSW 6 km/h   30 % 0 mm
17:42 -11.2 °C -20.7 °C 34462.7 hPa West 6 km/h 6 km/h 30 % 0 mm
17:47 -11.4 °C -20.8 °C 34462.7 hPa WSW 3.1 km/h 3.1 km/h 30 % 0 mm
17:52 -11.5 °C -20.9 °C 34462.7 hPa WSW 4.2 km/h 4.2 km/h 30 % 0 mm
17:57 -11.6 °C -20.7 °C 34462.7 hPa WSW 6 km/h 6 km/h 31 % 0 mm
18:02 -11.6 °C -20.8 °C 34462.7 hPa West 6 km/h 6 km/h 31 % 0 mm
18:07 -11.8 °C -20.9 °C 34462.7 hPa Calm     31 % 0 mm
18:12 -11.9 °C -21.1 °C 34462.7 hPa NNE 6 km/h 6 km/h 31 % 0 mm
18:15 -15.3 °C -21 °C 34533.8 hPa Calm   2.6 km/h 47 % 0 mm
18:17 -12.1 °C -21.2 °C 34462.7 hPa NNE 6 km/h 6 km/h 31 % 0 mm
18:22 -12.1 °C -21.2 °C 34462.7 hPa NE 6 km/h 6 km/h 31 % 0 mm
18:25 -15.3 °C -20.9 °C 34533.8 hPa WSW 5.1 km/h 5.1 km/h 48 % 0 mm
18:27 -12.2 °C -21.3 °C 34462.7 hPa NW 3.1 km/h   31 % 0 mm
18:32 -12.2 °C -21.3 °C 34462.7 hPa WNW 3.7 km/h   31 % 0 mm
18:35 -15.4 °C -21 °C 34533.8 hPa SW 2.6 km/h 5.1 km/h 48 % 0 mm
18:37 -12.3 °C -21.3 °C 34462.7 hPa NNE 6 km/h   31 % 0 mm
18:42 -12.3 °C -21.3 °C 34462.7 hPa NNE 6.3 km/h 6.3 km/h 31 % 0 mm
18:45 -15.3 °C -20.9 °C 34533.8 hPa Calm   2.6 km/h 48 % 0 mm
18:47 -12.4 °C -21.5 °C 34462.7 hPa North 6 km/h 6 km/h 31 % 0 mm
18:52 -12.4 °C -21.5 °C 34462.7 hPa NNE 6 km/h 6 km/h 31 % 0 mm
18:55 -15.4 °C -21 °C 34533.8 hPa WSW 2.6 km/h 5.1 km/h 48 % 0 mm
18:57 -12.4 °C -21.5 °C 34462.7 hPa Calm     31 % 0 mm
19:02 -12.6 °C -21.6 °C 34462.7 hPa Calm     31 % 0 mm
19:05 -15.6 °C -21.2 °C 34533.8 hPa Calm   5.1 km/h 48 % 0 mm
19:07 -12.6 °C -21.6 °C 34496.6 hPa NW 3.1 km/h 3.1 km/h 31 % 0 mm
19:12 -12.6 °C -21.4 °C 34496.6 hPa NW 3.1 km/h   32 % 0 mm
19:15 -15.5 °C -21.1 °C 34533.8 hPa West 2.6 km/h 5.1 km/h 48 % 0 mm
19:17 -12.6 °C -21.4 °C 34496.6 hPa NW 3.1 km/h   32 % 0 mm
19:22 -12.7 °C -21.5 °C 34496.6 hPa Calm     32 % 0 mm
19:25 -15.4 °C -21 °C 34533.8 hPa Calm   5.1 km/h 48 % 0 mm
19:27 -12.7 °C -21.6 °C 34496.6 hPa NW 3.1 km/h   32 % 0 mm
19:32 -12.7 °C -21.6 °C 34496.6 hPa WNW 3.1 km/h 3.1 km/h 32 % 0 mm
19:35 -15.4 °C -21 °C 34533.8 hPa Calm   2.6 km/h 48 % 0 mm
19:37 -12.7 °C -21.6 °C 34496.6 hPa NNE 3.1 km/h   32 % 0 mm
19:42 -12.8 °C -21.6 °C 34496.6 hPa Calm     32 % 0 mm
19:45 -15.3 °C -20.9 °C 34496.6 hPa Calm   2.6 km/h 48 % 0 mm
19:47 -12.9 °C -21.4 °C 34496.6 hPa Calm     33 % 0 mm
19:52 -12.9 °C -21.5 °C 34496.6 hPa North 3.1 km/h   33 % 0 mm
19:55 -15.2 °C -20.8 °C 34533.8 hPa WNW 2.6 km/h 5.1 km/h 48 % 0 mm
19:57 -12.9 °C -21.5 °C 34496.6 hPa NW 3.1 km/h 3.1 km/h 33 % 0 mm
20:02 -12.9 °C -21.5 °C 34496.6 hPa WNW 6 km/h 6 km/h 33 % 0 mm
20:05 -15.5 °C -21.1 °C 34533.8 hPa Calm   2.6 km/h 48 % 0 mm
20:07 -13.1 °C -21.6 °C 34533.8 hPa WNW 6 km/h 6 km/h 33 % 0 mm
20:12 -13.1 °C -21.6 °C 34533.8 hPa WNW 6 km/h 6 km/h 33 % 0 mm
20:15 -15.8 °C -21.2 °C 34496.6 hPa NNE 5.1 km/h 7.7 km/h 49 % 0 mm
20:17 -13.1 °C -21.6 °C 34533.8 hPa Calm     33 % 0 mm
20:22 -13.1 °C -21.6 °C 34533.8 hPa NNE 6.3 km/h 6.3 km/h 33 % 0 mm
20:27 -13.2 °C -21.6 °C 34533.8 hPa NE 6 km/h   34 % 0 mm
20:32 -13.3 °C -21.6 °C 34533.8 hPa WNW 3.7 km/h 3.7 km/h 34 % 0 mm
20:35 -15.8 °C -21.2 °C 34533.8 hPa Calm   2.6 km/h 49 % 0 mm
20:37 -13.6 °C -21.8 °C 34533.8 hPa WSW 6 km/h 6 km/h 34 % 0 mm
20:42 -13.6 °C -21.9 °C 34533.8 hPa WSW 3.1 km/h 3.1 km/h 34 % 0 mm
20:45 -15.7 °C -21 °C 34533.8 hPa North 2.6 km/h 7.7 km/h 50 % 0 mm
20:47 -13.5 °C -21.8 °C 34533.8 hPa WNW 4.2 km/h 4.2 km/h 34 % 0 mm
20:52 -13.5 °C -21.8 °C 34533.8 hPa WNW 3.7 km/h 3.7 km/h 34 % 0 mm
20:55 -16 °C -21.2 °C 34533.8 hPa West 5.1 km/h 7.7 km/h 50 % 0 mm
20:57 -13.5 °C -21.8 °C 34533.8 hPa WNW 4.2 km/h 4.2 km/h 34 % 0 mm
21:03 -13.5 °C -21.8 °C 34533.8 hPa West 3.7 km/h 3.7 km/h 34 % 0 mm
21:05 -16.1 °C -21.3 °C 34533.8 hPa WSW 2.6 km/h 7.7 km/h 50 % 0 mm
21:07 -13.6 °C -21.7 °C 34496.6 hPa ESE 11.9 km/h 11.9 km/h 35 % 0 mm
21:12 -13.9 °C -21.9 °C 34496.6 hPa ENE 9.3 km/h 9.3 km/h 35 % 0 mm
21:15 -15.8 °C -21.1 °C 34533.8 hPa WSW 5.1 km/h 7.7 km/h 50 % 0 mm
21:17 -13.8 °C -21.7 °C 34496.6 hPa ENE 6 km/h 6 km/h 36 % 0 mm
21:23 -13.9 °C -21.7 °C 34533.8 hPa NNE 3.7 km/h 3.7 km/h 36 % 0 mm
21:27 -13.9 °C -21.6 °C 34533.8 hPa SSW 6 km/h 6 km/h 37 % 0 mm
21:33 -14.1 °C -21.5 °C 34533.8 hPa Calm     38 % 0 mm
21:35 -15.7 °C -20.9 °C 34533.8 hPa WSW 5.1 km/h 7.7 km/h 50 % 0 mm
21:43 -14.1 °C -21.3 °C 34533.8 hPa Calm     39 % 0 mm
21:44 -14.2 °C -21.4 °C 34533.8 hPa SSW 3.7 km/h   39 % 0 mm
21:45 -15.6 °C -20.7 °C 34533.8 hPa WSW 2.6 km/h 5.1 km/h 51 % 0 mm
21:54 -14.2 °C -21.4 °C 34533.8 hPa WSW 3.7 km/h   39 % 0 mm
21:55 -15.4 °C -20.7 °C 34533.8 hPa WSW 2.6 km/h 5.1 km/h 50 % 0 mm
21:59 -14.3 °C -21.3 °C 34533.8 hPa WSW 3.7 km/h 3.7 km/h 40 % 0 mm
22:04 -14.3 °C -21.3 °C 34533.8 hPa WSW 3.1 km/h   40 % 0 mm
22:05 -15.4 °C -20.5 °C 34533.8 hPa NW 2.6 km/h 2.6 km/h 51 % 0 mm
22:09 -14.4 °C -21.2 °C 34533.8 hPa Calm     41 % 0 mm
22:14 -14.4 °C -21.3 °C 34533.8 hPa WSW 6 km/h 6 km/h 41 % 0 mm
22:15 -15.2 °C -20.4 °C 34533.8 hPa North 2.6 km/h 5.1 km/h 51 % 0 mm
22:19 -14.4 °C -21.3 °C 34533.8 hPa Calm     41 % 0 mm
22:24 -14.5 °C -21.3 °C 34533.8 hPa Calm     41 % 0 mm
22:29 -14.6 °C -21.4 °C 34533.8 hPa Calm     41 % 0 mm
22:34 -14.6 °C -21.2 °C 34533.8 hPa SE 3.1 km/h 3.1 km/h 42 % 0 mm
22:35 -15.4 °C -20.5 °C 34533.8 hPa Calm   5.1 km/h 51 % 0 mm
22:44 -14.8 °C -21.4 °C 34533.8 hPa SW 6 km/h 6 km/h 42 % 0 mm
22:45 -15.3 °C -20.5 °C 34533.8 hPa Calm   7.7 km/h 51 % 0 mm
22:49 -14.9 °C -21.7 °C 34533.8 hPa SW 6 km/h 6 km/h 41 % 0 mm
22:54 -14.9 °C -21.5 °C 34533.8 hPa ENE 4.2 km/h   42 % 0 mm
22:55 -15.3 °C -20.5 °C 34533.8 hPa NW 2.6 km/h 5.1 km/h 51 % 0 mm
22:59 -14.9 °C -21.5 °C 34533.8 hPa West 4.2 km/h 4.2 km/h 42 % 0 mm
23:04 -14.9 °C -21.3 °C 34533.8 hPa SSE 6 km/h 6 km/h 43 % 0 mm
23:05 -15.3 °C -20.5 °C 34533.8 hPa Calm   5.1 km/h 51 % 0 mm
23:09 -14.9 °C -21.2 °C 34533.8 hPa Calm     44 % 0 mm
23:14 -14.9 °C -21.2 °C 34533.8 hPa Calm     44 % 0 mm
23:15 -15.3 °C -20.5 °C 34496.6 hPa NNE 2.6 km/h 7.7 km/h 51 % 0 mm
23:19 -14.9 °C -21.3 °C 34533.8 hPa WNW 3.7 km/h 3.7 km/h 43 % 0 mm
23:24 -14.9 °C -21.2 °C 34533.8 hPa NNE 3.7 km/h 3.7 km/h 44 % 0 mm
23:25 -15.4 °C -20.5 °C 34533.8 hPa NNE 5.1 km/h 5.1 km/h 51 % 0 mm
23:29 -14.9 °C -21.1 °C 34533.8 hPa Calm     45 % 0 mm
23:34 -15 °C -21.1 °C 34533.8 hPa South 3.1 km/h   45 % 0 mm
23:35 -15.5 °C -20.7 °C 34533.8 hPa Calm   2.6 km/h 51 % 0 mm
23:39 -15.1 °C -21.2 °C 34533.8 hPa SW 3.7 km/h 3.7 km/h 45 % 0 mm
23:44 -15.2 °C -21.2 °C 34533.8 hPa NNE 4.2 km/h   46 % 0 mm
23:45 -15.6 °C -20.7 °C 34533.8 hPa WNW 2.6 km/h 2.6 km/h 51 % 0 mm
23:49 -15.3 °C -21.2 °C 34533.8 hPa North 6 km/h 6 km/h 46 % 0 mm
23:54 -15.3 °C -21 °C 34533.8 hPa North 3.1 km/h 3.1 km/h 47 % 0 mm
23:55 -15.7 °C -20.8 °C 34533.8 hPa WNW 2.6 km/h 2.6 km/h 51 % 0 mm
23:59 -15.3 °C -21 °C 34533.8 hPa NE 3.1 km/h 3.1 km/h 47 % 0 mm
Meteo Sesrovires
Elogis d' Weather Underground - 1.5 mb

Guio original per  Jim McMurry - jmcmurry@mwt.net Adaptat per a la plantilla per  Wim van der Kuil - Leuven-Template.eu

Trobareu la nostra informacio del temps tambe a:

Weather Underground

AWEKAS